Time;durP1;ratioP1;P1;durP2;ratioP2;P2;SDS_P1;SDS_P2;PMS_P1;PMS_P2;Temp;Humidity;BMP_temperature;BMP_pressure;BME280_temperature;BME280_humidity;BME280_pressure;Samples;Min_cycle;Max_cycle;Signal;HPM_P1;HPM_P2
2022/09/08 00:00:31;;;;;;;;;0.67;0.67;;;;;;;;5096352;27;46820;-78
2022/09/08 00:02:59;;;;;;;;;0.00;0.00;;;;;;;;5096625;27;45311;-78
2022/09/08 00:05:25;;;;;;;;;0.67;0.00;;;;;;;;5097121;27;45320;-79
2022/09/08 00:07:52;;;;;;;;;0.00;0.00;;;;;;;;5096765;27;45406;-78
2022/09/08 00:10:17;;;;;;;;;1.67;0.00;;;;;;;;5096759;27;46154;-79
2022/09/08 00:12:43;;;;;;;;;0.33;0.00;;;;;;;;5096598;27;45299;-78
2022/09/08 00:15:09;;;;;;;;;0.33;0.33;;;;;;;;5096324;27;45277;-79
2022/09/08 00:17:34;;;;;;;;;0.00;0.00;;;;;;;;5096862;27;45319;-78
2022/09/08 00:20:00;;;;;;;;;0.00;0.00;;;;;;;;5096535;27;45276;-78
2022/09/08 00:22:25;;;;;;;;;3.33;0.00;;;;;;;;5096187;27;45367;-79
2022/09/08 00:24:50;;;;;;;;;0.00;0.00;;;;;;;;5096767;27;45301;-79
2022/09/08 00:27:15;;;;;;;;;0.00;0.00;;;;;;;;5094294;27;45525;-78
2022/09/08 00:29:41;;;;;;;;;2.00;1.00;;;;;;;;5083974;27;46657;-79
2022/09/08 00:32:06;;;;;;;;;1.00;0.00;;;;;;;;5078204;27;45321;-78
2022/09/08 00:34:32;;;;;;;;;0.00;0.00;;;;;;;;5096406;27;45655;-78
2022/09/08 00:36:58;;;;;;;;;0.00;0.00;;;;;;;;5094095;27;45476;-79
2022/09/08 00:39:23;;;;;;;;;1.00;0.00;;;;;;;;5096230;27;46384;-79
2022/09/08 00:41:50;;;;;;;;;1.67;0.00;;;;;;;;5096185;27;45403;-79
2022/09/08 00:44:34;;;;;;;;;0.00;0.00;;;;;;;;5096185;27;45462;-79
2022/09/08 00:46:59;;;;;;;;;0.00;0.00;;;;;;;;5096487;27;45331;-78
2022/09/08 00:49:25;;;;;;;;;0.00;0.00;;;;;;;;5096032;27;47107;-79
2022/09/08 00:51:53;;;;;;;;;0.00;0.00;;;;;;;;5095805;27;45382;-79
2022/09/08 00:54:19;;;;;;;;;2.00;0.67;;;;;;;;5085877;27;45341;-79
2022/09/08 00:56:45;;;;;;;;;0.00;0.00;;;;;;;;5095936;27;45341;-78
2022/09/08 00:59:12;;;;;;;;;0.00;0.00;;;;;;;;5095595;27;45423;-79
2022/09/08 01:01:38;;;;;;;;;1.00;0.00;;;;;;;;5090189;27;45267;-78
2022/09/08 01:04:04;;;;;;;;;0.00;0.00;;;;;;;;5086613;27;45366;-78
2022/09/08 01:12:44;;;;;;;;;0.00;0.00;;;;;;;;5064881;28;45451;-79
2022/09/08 01:15:11;;;;;;;;;0.00;0.00;;;;;;;;5093669;27;45269;-78
2022/09/08 01:17:37;;;;;;;;;0.33;0.33;;;;;;;;5099590;27;45482;-79
2022/09/08 01:20:04;;;;;;;;;1.00;0.00;;;;;;;;5086084;27;46997;-79
2022/09/08 01:22:48;;;;;;;;;0.00;0.00;;;;;;;;5097944;27;45352;-78
2022/09/08 01:25:20;;;;;;;;;0.67;0.67;;;;;;;;5099503;27;45443;-78
2022/09/08 01:27:48;;;;;;;;;0.00;0.00;;;;;;;;5071102;27;45420;-79
2022/09/08 01:30:14;;;;;;;;;0.00;0.00;;;;;;;;5086413;27;45351;-79
2022/09/08 01:32:41;;;;;;;;;1.00;0.00;;;;;;;;5097299;27;45296;-78
2022/09/08 01:35:06;;;;;;;;;0.00;0.00;;;;;;;;5099452;27;45347;-78
2022/09/08 01:37:31;;;;;;;;;2.00;0.00;;;;;;;;5096856;27;45319;-79
2022/09/08 01:39:57;;;;;;;;;0.00;0.00;;;;;;;;5098938;27;46056;-78
2022/09/08 01:42:22;;;;;;;;;0.00;0.00;;;;;;;;5080149;27;45419;-79
2022/09/08 01:44:47;;;;;;;;;0.00;0.00;;;;;;;;5099380;27;45375;-78
2022/09/08 01:47:13;;;;;;;;;0.00;0.00;;;;;;;;5099344;27;45323;-79
2022/09/08 01:49:38;;;;;;;;;0.00;0.00;;;;;;;;5098793;27;46418;-79
2022/09/08 01:52:03;;;;;;;;;0.00;0.00;;;;;;;;5088341;27;45486;-79
2022/09/08 01:54:28;;;;;;;;;0.00;0.00;;;;;;;;5084469;27;45321;-79
2022/09/08 01:56:54;;;;;;;;;0.00;0.00;;;;;;;;5098763;27;45393;-79
2022/09/08 01:59:20;;;;;;;;;0.00;0.00;;;;;;;;5098703;27;46143;-78
2022/09/08 02:01:45;;;;;;;;;0.00;0.00;;;;;;;;5098904;27;45367;-78
2022/09/08 02:04:10;;;;;;;;;0.00;0.00;;;;;;;;5099096;27;45322;-79
2022/09/08 02:06:35;;;;;;;;;0.00;0.00;;;;;;;;5098790;27;45465;-79
2022/09/08 02:09:00;;;;;;;;;0.00;0.00;;;;;;;;5084000;27;47031;-79
2022/09/08 02:11:26;;;;;;;;;0.00;0.00;;;;;;;;5098323;27;45351;-79
2022/09/08 02:13:51;;;;;;;;;1.00;1.00;;;;;;;;5098676;27;45334;-78
2022/09/08 02:16:16;;;;;;;;;0.00;0.00;;;;;;;;5098522;27;45328;-78
2022/09/08 02:18:41;;;;;;;;;0.00;0.00;;;;;;;;5098173;27;47117;-79
2022/09/08 02:21:09;;;;;;;;;2.00;0.00;;;;;;;;5098532;27;45451;-79
2022/09/08 02:23:35;;;;;;;;;0.00;0.00;;;;;;;;5098730;27;45577;-78
2022/09/08 02:26:00;;;;;;;;;0.00;0.00;;;;;;;;5098125;27;45381;-78
2022/09/08 02:28:25;;;;;;;;;0.00;0.00;;;;;;;;5098400;27;45484;-79
2022/09/08 02:30:51;;;;;;;;;0.33;0.00;;;;;;;;5098377;27;45657;-79
2022/09/08 02:33:16;;;;;;;;;0.00;0.00;;;;;;;;5098387;27;45352;-79
2022/09/08 02:35:41;;;;;;;;;0.00;0.00;;;;;;;;5095754;27;45481;-79
2022/09/08 02:38:06;;;;;;;;;1.33;0.67;;;;;;;;5098372;27;45402;-79
2022/09/08 02:40:32;;;;;;;;;0.00;0.00;;;;;;;;5097890;27;45303;-79
2022/09/08 02:42:59;;;;;;;;;0.00;0.00;;;;;;;;5098398;27;45481;-79
2022/09/08 02:45:25;;;;;;;;;0.00;0.00;;;;;;;;5098266;27;45282;-79
2022/09/08 02:47:50;;;;;;;;;0.00;0.00;;;;;;;;5097780;27;45461;-78
2022/09/08 02:50:15;;;;;;;;;0.00;0.00;;;;;;;;5098162;27;45316;-79
2022/09/08 02:52:41;;;;;;;;;1.00;0.00;;;;;;;;5097699;27;45234;-75
2022/09/08 02:55:06;;;;;;;;;0.67;0.00;;;;;;;;5087663;27;45279;-78
2022/09/08 02:57:31;;;;;;;;;0.67;0.67;;;;;;;;5098011;27;45875;-78
2022/09/08 02:59:56;;;;;;;;;1.00;0.00;;;;;;;;5097563;27;45502;-79
2022/09/08 03:02:21;;;;;;;;;0.00;0.00;;;;;;;;5097803;27;45433;-79
2022/09/08 03:04:47;;;;;;;;;0.67;0.00;;;;;;;;5097945;27;45493;-79
2022/09/08 03:07:12;;;;;;;;;0.00;0.00;;;;;;;;5097344;27;45363;-78
2022/09/08 03:09:37;;;;;;;;;0.00;0.00;;;;;;;;5097876;27;45386;-78
2022/09/08 03:12:03;;;;;;;;;1.00;1.00;;;;;;;;5097762;27;45240;-79
2022/09/08 03:14:28;;;;;;;;;0.00;0.00;;;;;;;;5097827;27;45508;-79
2022/09/08 03:16:53;;;;;;;;;0.00;0.00;;;;;;;;5097341;27;47041;-78
2022/09/08 03:19:18;;;;;;;;;0.50;0.50;;;;;;;;5097600;27;45350;-78
2022/09/08 03:21:44;;;;;;;;;0.00;0.00;;;;;;;;5097299;27;45361;-78
2022/09/08 03:24:09;;;;;;;;;1.33;0.00;;;;;;;;5097708;27;45410;-79
2022/09/08 03:26:34;;;;;;;;;0.00;0.00;;;;;;;;5086557;27;47037;-79
2022/09/08 03:28:59;;;;;;;;;0.00;0.00;;;;;;;;5093033;27;45375;-79
2022/09/08 03:31:25;;;;;;;;;2.00;1.00;;;;;;;;5097718;27;45446;-78
2022/09/08 03:33:50;;;;;;;;;0.00;0.00;;;;;;;;5082695;27;45352;-78
2022/09/08 03:36:16;;;;;;;;;0.00;0.00;;;;;;;;5094573;27;46040;-78
2022/09/08 03:38:41;;;;;;;;;0.67;0.00;;;;;;;;5097238;27;45637;-78
2022/09/08 03:41:11;;;;;;;;;0.00;0.00;;;;;;;;5093032;27;45331;-79
2022/09/08 03:43:36;;;;;;;;;0.00;0.00;;;;;;;;5087901;27;45297;-78
2022/09/08 03:46:07;;;;;;;;;0.00;0.00;;;;;;;;5096765;27;45327;-79
2022/09/08 03:48:34;;;;;;;;;0.00;0.00;;;;;;;;5097022;27;45411;-79
2022/09/08 03:51:09;;;;;;;;;0.00;0.00;;;;;;;;5096918;27;45379;-79
2022/09/08 03:53:34;;;;;;;;;0.00;0.00;;;;;;;;5092184;27;45641;-79
2022/09/08 03:56:00;;;;;;;;;0.00;0.00;;;;;;;;5091204;27;47109;-79
2022/09/08 03:58:25;;;;;;;;;2.00;0.00;;;;;;;;5096869;27;45331;-79
2022/09/08 04:00:50;;;;;;;;;0.00;0.00;;;;;;;;5097188;27;45477;-78
2022/09/08 04:03:17;;;;;;;;;1.00;0.00;;;;;;;;5096759;27;45399;-79
2022/09/08 04:05:42;;;;;;;;;0.00;0.00;;;;;;;;5096329;27;46353;-78
2022/09/08 04:08:08;;;;;;;;;0.00;0.00;;;;;;;;5096782;27;45616;-78
2022/09/08 04:10:33;;;;;;;;;0.00;0.00;;;;;;;;5096953;27;45507;-78
2022/09/08 04:12:58;;;;;;;;;0.00;0.00;;;;;;;;5096730;27;45413;-79
2022/09/08 04:15:24;;;;;;;;;0.00;0.00;;;;;;;;5096742;27;46204;-78
2022/09/08 04:17:49;;;;;;;;;0.00;0.00;;;;;;;;5096841;27;45364;-77
2022/09/08 04:20:16;;;;;;;;;0.00;0.00;;;;;;;;5096013;27;45370;-79
2022/09/08 04:22:41;;;;;;;;;0.00;0.00;;;;;;;;5083019;27;45387;-79
2022/09/08 04:25:07;;;;;;;;;0.00;0.00;;;;;;;;5096332;27;46319;-78
2022/09/08 04:27:32;;;;;;;;;0.00;0.00;;;;;;;;5092121;27;45465;-79
2022/09/08 04:29:57;;;;;;;;;0.00;0.00;;;;;;;;5086871;27;45426;-78
2022/09/08 04:32:22;;;;;;;;;0.00;0.00;;;;;;;;5096485;27;45416;-78
2022/09/08 04:34:50;;;;;;;;;0.67;0.67;;;;;;;;5096334;27;45420;-79
2022/09/08 04:37:16;;;;;;;;;1.00;1.00;;;;;;;;5093874;27;45353;-78
2022/09/08 04:39:41;;;;;;;;;1.00;1.00;;;;;;;;5096229;27;45302;-79
2022/09/08 04:42:06;;;;;;;;;0.00;0.00;;;;;;;;5096693;27;45486;-78
2022/09/08 04:44:31;;;;;;;;;0.00;0.00;;;;;;;;5095979;27;45964;-78
2022/09/08 04:46:57;;;;;;;;;0.00;0.00;;;;;;;;5096412;27;45253;-79
2022/09/08 04:49:22;;;;;;;;;0.00;0.00;;;;;;;;5093891;27;45276;-78
2022/09/08 04:51:49;;;;;;;;;0.00;0.00;;;;;;;;5065849;27;45566;-79
2022/09/08 04:54:14;;;;;;;;;1.00;0.00;;;;;;;;5085566;27;45375;-78
2022/09/08 04:56:39;;;;;;;;;0.00;0.00;;;;;;;;5095977;27;45573;-78
2022/09/08 04:59:05;;;;;;;;;1.00;0.00;;;;;;;;5096347;27;45401;-79
2022/09/08 05:01:31;;;;;;;;;0.00;0.00;;;;;;;;5096082;27;45353;-78
2022/09/08 05:04:01;;;;;;;;;0.00;0.00;;;;;;;;5095583;27;46202;-79
2022/09/08 05:06:28;;;;;;;;;0.00;0.00;;;;;;;;5095781;27;45385;-78
2022/09/08 05:08:55;;;;;;;;;0.00;0.00;;;;;;;;5095995;27;45451;-78
2022/09/08 05:11:20;;;;;;;;;0.00;0.00;;;;;;;;5095856;27;45362;-78
2022/09/08 05:13:46;;;;;;;;;0.00;0.00;;;;;;;;5080946;27;45365;-79
2022/09/08 05:16:13;;;;;;;;;0.00;0.00;;;;;;;;5077574;27;45367;-78
2022/09/08 05:18:39;;;;;;;;;0.00;0.00;;;;;;;;5095600;27;45295;-78
2022/09/08 05:21:05;;;;;;;;;0.00;0.00;;;;;;;;5095687;27;45245;-79
2022/09/08 05:23:30;;;;;;;;;0.00;0.00;;;;;;;;5095920;27;46153;-79
2022/09/08 05:25:56;;;;;;;;;0.00;0.00;;;;;;;;5095421;27;45322;-80
2022/09/08 05:28:22;;;;;;;;;0.00;0.00;;;;;;;;5084554;27;45276;-79
2022/09/08 05:30:47;;;;;;;;;1.00;1.00;;;;;;;;5092876;27;45411;-80
2022/09/08 05:33:12;;;;;;;;;0.00;0.00;;;;;;;;5095180;27;45410;-79
2022/09/08 05:35:37;;;;;;;;;0.67;0.00;;;;;;;;5092856;27;45229;-79
2022/09/08 05:38:02;;;;;;;;;0.00;0.00;;;;;;;;5095993;27;45239;-79
2022/09/08 05:40:28;;;;;;;;;0.00;0.00;;;;;;;;5095673;27;45453;-79
2022/09/08 05:42:53;;;;;;;;;0.00;0.00;;;;;;;;5081035;27;46954;-78
2022/09/08 05:45:18;;;;;;;;;0.00;0.00;;;;;;;;5095720;27;45451;-79
2022/09/08 05:47:43;;;;;;;;;2.33;0.00;;;;;;;;5095319;27;45563;-78
2022/09/08 05:50:08;;;;;;;;;1.00;1.00;;;;;;;;5095557;27;45418;-76
2022/09/08 05:52:34;;;;;;;;;0.00;0.00;;;;;;;;5097228;27;45970;-74
2022/09/08 05:54:59;;;;;;;;;0.00;0.00;;;;;;;;5088362;27;45427;-76
2022/09/08 05:57:24;;;;;;;;;0.00;0.00;;;;;;;;5099195;27;45414;-78
2022/09/08 05:59:50;;;;;;;;;0.00;0.00;;;;;;;;5098690;27;45390;-78
2022/09/08 06:02:15;;;;;;;;;0.33;0.00;;;;;;;;5091803;27;47278;-77
2022/09/08 06:04:40;;;;;;;;;1.00;1.00;;;;;;;;5079535;27;45441;-78
2022/09/08 06:07:06;;;;;;;;;0.67;0.00;;;;;;;;5097941;27;45488;-78
2022/09/08 06:09:31;;;;;;;;;0.00;0.00;;;;;;;;5098492;27;45528;-77
2022/09/08 06:11:57;;;;;;;;;0.00;0.00;;;;;;;;5097969;27;46175;-76
2022/09/08 06:14:22;;;;;;;;;0.00;0.00;;;;;;;;5098350;27;45357;-76
2022/09/08 06:16:47;;;;;;;;;0.00;0.00;;;;;;;;5098574;27;45366;-76
2022/09/08 06:19:13;;;;;;;;;0.00;0.00;;;;;;;;5098328;27;45292;-78
2022/09/08 06:21:38;;;;;;;;;0.67;0.67;;;;;;;;5098344;27;45261;-78
2022/09/08 06:24:05;;;;;;;;;0.00;0.00;;;;;;;;5098295;27;45600;-75
2022/09/08 06:26:30;;;;;;;;;0.33;0.00;;;;;;;;5098620;27;45421;-75
2022/09/08 06:28:55;;;;;;;;;0.00;0.00;;;;;;;;5098173;27;45265;-74
2022/09/08 06:31:35;;;;;;;;;0.00;0.00;;;;;;;;5098006;27;45354;-73
2022/09/08 06:34:03;;;;;;;;;1.00;1.00;;;;;;;;5096356;27;45625;-78
2022/09/08 06:36:52;;;;;;;;;0.00;0.00;;;;;;;;5086083;27;45256;-78
2022/09/08 06:39:23;;;;;;;;;0.00;0.00;;;;;;;;5089402;27;45311;-77
2022/09/08 06:41:56;;;;;;;;;0.00;0.00;;;;;;;;5098057;27;45288;-78
2022/09/08 06:44:26;;;;;;;;;0.00;0.00;;;;;;;;5097993;27;45383;-78
2022/09/08 06:46:52;;;;;;;;;0.33;0.33;;;;;;;;5097899;27;45352;-77
2022/09/08 06:49:17;;;;;;;;;0.33;0.00;;;;;;;;5097856;27;45372;-77
2022/09/08 06:51:42;;;;;;;;;0.00;0.00;;;;;;;;5097892;27;45381;-77
2022/09/08 06:54:20;;;;;;;;;0.00;0.00;;;;;;;;5088369;27;45375;-78
2022/09/08 06:56:54;;;;;;;;;1.00;0.00;;;;;;;;5053294;27;45356;-77
2022/09/08 06:59:38;;;;;;;;;0.00;0.00;;;;;;;;5097271;27;45517;-77
2022/09/08 07:02:06;;;;;;;;;0.00;0.00;;;;;;;;5074268;27;46328;-77
2022/09/08 07:04:50;;;;;;;;;0.00;0.00;;;;;;;;5095972;27;45390;-79
2022/09/08 07:07:22;;;;;;;;;0.00;0.00;;;;;;;;5097852;27;45379;-78
2022/09/08 07:09:47;;;;;;;;;0.00;0.00;;;;;;;;5097597;27;45284;-78
2022/09/08 07:12:23;;;;;;;;;0.33;0.33;;;;;;;;5093520;27;45315;-77
2022/09/08 07:14:51;;;;;;;;;0.00;0.00;;;;;;;;5088672;27;45244;-77
2022/09/08 07:17:35;;;;;;;;;0.67;0.00;;;;;;;;5089228;27;45349;-77
2022/09/08 07:20:00;;;;;;;;;0.00;0.00;;;;;;;;5089628;27;45432;-77
2022/09/08 07:22:31;;;;;;;;;0.00;0.00;;;;;;;;5082669;27;46201;-77
2022/09/08 07:25:01;;;;;;;;;0.00;0.00;;;;;;;;5097469;27;45355;-78
2022/09/08 07:27:27;;;;;;;;;2.00;0.00;;;;;;;;5097369;27;45443;-77
2022/09/08 07:29:56;;;;;;;;;1.00;0.33;;;;;;;;5096858;27;45374;-77
2022/09/08 07:32:27;;;;;;;;;0.00;0.00;;;;;;;;5097098;27;45429;-77
2022/09/08 07:34:54;;;;;;;;;0.00;0.00;;;;;;;;5097141;27;45374;-78
2022/09/08 07:37:28;;;;;;;;;0.00;0.00;;;;;;;;5094768;27;45275;-76
2022/09/08 07:40:16;;;;;;;;;0.00;0.00;;;;;;;;5097176;27;45519;-78
2022/09/08 07:42:41;;;;;;;;;0.00;0.00;;;;;;;;5096599;27;47044;-75
2022/09/08 07:45:10;;;;;;;;;0.00;0.00;;;;;;;;5097060;27;45309;-77
2022/09/08 07:47:41;;;;;;;;;0.00;0.00;;;;;;;;5097254;27;45746;-77
2022/09/08 07:50:18;;;;;;;;;0.00;0.00;;;;;;;;5097301;27;45383;-76
2022/09/08 07:53:01;;;;;;;;;0.00;0.00;;;;;;;;5096884;27;46073;-77
2022/09/08 07:55:40;;;;;;;;;0.00;0.00;;;;;;;;5076858;27;45429;-76
2022/09/08 07:58:05;;;;;;;;;0.00;0.00;;;;;;;;5096598;27;45328;-77
2022/09/08 08:00:32;;;;;;;;;0.00;0.00;;;;;;;;5097214;27;45358;-76
2022/09/08 08:03:16;;;;;;;;;0.00;0.00;;;;;;;;5096099;27;46231;-78
2022/09/08 08:05:47;;;;;;;;;0.00;0.00;;;;;;;;5096695;27;45383;-78
2022/09/08 08:08:12;;;;;;;;;0.00;0.00;;;;;;;;5078474;27;45390;-78
2022/09/08 08:10:42;;;;;;;;;0.00;0.00;;;;;;;;5096508;27;45328;-78
2022/09/08 08:13:16;;;;;;;;;0.00;0.00;;;;;;;;5096237;27;46549;-77
2022/09/08 08:16:08;;;;;;;;;1.00;1.00;;;;;;;;5077825;27;45545;-78
2022/09/08 08:18:52;;;;;;;;;0.00;0.00;;;;;;;;5060521;27;45513;-77
2022/09/08 08:21:22;;;;;;;;;1.00;0.00;;;;;;;;5096627;27;45379;-77
2022/09/08 08:23:48;;;;;;;;;0.00;0.00;;;;;;;;5096097;27;47142;-77
2022/09/08 08:26:18;;;;;;;;;0.00;0.00;;;;;;;;5096197;27;45459;-78
2022/09/08 08:28:44;;;;;;;;;0.00;0.00;;;;;;;;5096664;27;45327;-77
2022/09/08 08:31:15;;;;;;;;;0.00;0.00;;;;;;;;5096431;27;45515;-77
2022/09/08 08:33:43;;;;;;;;;0.67;0.00;;;;;;;;5096269;27;45998;-77
2022/09/08 08:36:15;;;;;;;;;0.00;0.00;;;;;;;;5093924;27;45435;-77
2022/09/08 08:38:45;;;;;;;;;2.00;1.00;;;;;;;;5096440;27;45374;-77
2022/09/08 08:41:13;;;;;;;;;0.00;0.00;;;;;;;;5095717;27;45287;-78
2022/09/08 08:43:48;;;;;;;;;0.33;0.00;;;;;;;;5096115;27;46235;-77
2022/09/08 08:46:20;;;;;;;;;0.00;0.00;;;;;;;;5081818;27;45438;-77
2022/09/08 08:48:55;;;;;;;;;0.00;0.00;;;;;;;;5085194;27;45533;-77
2022/09/08 08:51:39;;;;;;;;;1.33;0.00;;;;;;;;5094388;27;45587;-78
2022/09/08 08:54:14;;;;;;;;;0.00;0.00;;;;;;;;5086537;27;46197;-77
2022/09/08 08:56:39;;;;;;;;;0.00;0.00;;;;;;;;5067307;27;45398;-76
2022/09/08 08:59:13;;;;;;;;;0.00;0.00;;;;;;;;5096026;27;45378;-79
2022/09/08 09:01:38;;;;;;;;;1.00;0.00;;;;;;;;5096217;27;45403;-77
2022/09/08 09:04:12;;;;;;;;;0.00;0.00;;;;;;;;5095921;27;45896;-77
2022/09/08 09:06:40;;;;;;;;;0.00;0.00;;;;;;;;5095737;27;45426;-78
2022/09/08 09:09:20;;;;;;;;;0.00;0.00;;;;;;;;5096005;27;45341;-77
2022/09/08 09:11:46;;;;;;;;;0.00;0.00;;;;;;;;5095607;27;45330;-78
2022/09/08 09:14:11;;;;;;;;;2.33;0.00;;;;;;;;5095794;27;45996;-77
2022/09/08 09:16:36;;;;;;;;;0.00;0.00;;;;;;;;5095831;27;45347;-77
2022/09/08 09:19:04;;;;;;;;;0.00;0.00;;;;;;;;5095747;27;45422;-77
2022/09/08 09:21:48;;;;;;;;;0.00;0.00;;;;;;;;5096265;27;45451;-76
2022/09/08 09:24:22;;;;;;;;;2.00;0.00;;;;;;;;5080713;27;47458;-76
2022/09/08 09:26:49;;;;;;;;;0.33;0.00;;;;;;;;5096285;27;45316;-77
2022/09/08 09:29:24;;;;;;;;;0.00;0.00;;;;;;;;5099418;27;45499;-77
2022/09/08 09:32:18;;;;;;;;;0.00;0.00;;;;;;;;5099370;27;45477;-76
2022/09/08 09:34:52;;;;;;;;;0.00;0.00;;;;;;;;5098792;27;47519;-77
2022/09/08 09:37:30;;;;;;;;;0.00;0.00;;;;;;;;5096508;27;45360;-76
2022/09/08 09:39:56;;;;;;;;;0.67;0.00;;;;;;;;5098885;27;45338;-77
2022/09/08 09:42:36;;;;;;;;;0.00;0.00;;;;;;;;5099152;27;45378;-77
2022/09/08 09:45:16;;;;;;;;;0.00;0.00;;;;;;;;5098931;27;47090;-77
2022/09/08 09:47:59;;;;;;;;;2.00;0.67;;;;;;;;5098721;27;45349;-76
2022/09/08 09:50:31;;;;;;;;;0.00;0.00;;;;;;;;5099272;27;45358;-77
2022/09/08 09:53:05;;;;;;;;;0.00;0.00;;;;;;;;5095477;27;45541;-77
2022/09/08 09:55:50;;;;;;;;;0.00;0.00;;;;;;;;5079299;27;46239;-77
2022/09/08 09:58:29;;;;;;;;;0.00;0.00;;;;;;;;5087641;27;45440;-77
2022/09/08 10:01:07;;;;;;;;;0.33;0.00;;;;;;;;5098899;27;45390;-77
2022/09/08 10:03:50;;;;;;;;;0.00;0.00;;;;;;;;5071578;27;45352;-78
2022/09/08 10:06:22;;;;;;;;;1.00;0.00;;;;;;;;5098458;27;47272;-77
2022/09/08 10:08:50;;;;;;;;;0.00;0.00;;;;;;;;5098393;27;45284;-78
2022/09/08 10:11:30;;;;;;;;;0.00;0.00;;;;;;;;5098695;27;45394;-77
2022/09/08 10:14:14;;;;;;;;;0.00;0.00;;;;;;;;5098556;27;45316;-77
2022/09/08 10:16:39;;;;;;;;;0.00;0.00;;;;;;;;5098456;27;47427;-76
2022/09/08 10:19:04;;;;;;;;;0.00;0.00;;;;;;;;5098332;27;45428;-77
2022/09/08 10:21:59;;;;;;;;;0.00;0.00;;;;;;;;5098838;27;45398;-78
2022/09/08 10:24:25;;;;;;;;;0.00;0.00;;;;;;;;5098249;27;45406;-77
2022/09/08 10:26:59;;;;;;;;;0.00;0.00;;;;;;;;5098514;27;46214;-78
2022/09/08 10:29:27;;;;;;;;;0.00;0.00;;;;;;;;5098412;27;45271;-77
2022/09/08 10:31:58;;;;;;;;;0.00;0.00;;;;;;;;5097807;27;45434;-77
2022/09/08 10:34:26;;;;;;;;;1.00;0.00;;;;;;;;5098474;27;45386;-77
2022/09/08 10:37:03;;;;;;;;;0.00;0.00;;;;;;;;5084058;27;46099;-77
2022/09/08 10:39:31;;;;;;;;;0.00;0.00;;;;;;;;5096624;27;45516;-77
2022/09/08 10:42:13;;;;;;;;;0.33;0.00;;;;;;;;5098208;27;45383;-78
2022/09/08 10:44:57;;;;;;;;;0.00;0.00;;;;;;;;5098039;27;45351;-78
2022/09/08 10:47:47;;;;;;;;;1.00;1.00;;;;;;;;5097991;27;46727;-78
2022/09/08 10:50:15;;;;;;;;;0.00;0.00;;;;;;;;5075584;27;45478;-77
2022/09/08 10:52:51;;;;;;;;;0.00;0.00;;;;;;;;5097790;27;45344;-77
2022/09/08 10:55:29;;;;;;;;;0.00;0.00;;;;;;;;5087315;27;45421;-77
2022/09/08 10:58:10;;;;;;;;;0.00;0.00;;;;;;;;5097547;27;46103;-77
2022/09/08 11:00:44;;;;;;;;;0.00;0.00;;;;;;;;5087215;27;45376;-77
2022/09/08 11:03:24;;;;;;;;;0.00;0.00;;;;;;;;5095196;27;45398;-77
2022/09/08 11:05:58;;;;;;;;;0.00;0.00;;;;;;;;5097279;27;45522;-77
2022/09/08 11:08:36;;;;;;;;;0.33;0.00;;;;;;;;5082888;27;46204;-77
2022/09/08 11:11:07;;;;;;;;;2.00;0.00;;;;;;;;5097509;27;45362;-77
2022/09/08 11:13:37;;;;;;;;;3.00;0.67;;;;;;;;5097765;27;45632;-77
2022/09/08 11:16:08;;;;;;;;;0.00;0.00;;;;;;;;5097675;27;45471;-77
2022/09/08 11:18:46;;;;;;;;;0.00;0.00;;;;;;;;5097178;27;45401;-77
2022/09/08 11:21:30;;;;;;;;;2.00;0.00;;;;;;;;5088925;27;45354;-77
2022/09/08 11:24:14;;;;;;;;;0.00;0.00;;;;;;;;5093846;27;45311;-78
2022/09/08 11:26:51;;;;;;;;;0.00;0.00;;;;;;;;5097529;27;45400;-77
2022/09/08 11:29:17;;;;;;;;;0.67;0.00;;;;;;;;5097221;27;45396;-77
2022/09/08 11:31:42;;;;;;;;;0.00;0.00;;;;;;;;5097122;27;45708;-77
2022/09/08 11:34:14;;;;;;;;;2.00;0.00;;;;;;;;5095131;27;45322;-77
2022/09/08 11:36:48;;;;;;;;;0.00;0.00;;;;;;;;5085802;27;45414;-77
2022/09/08 11:39:31;;;;;;;;;2.00;0.67;;;;;;;;5096676;27;45296;-78
2022/09/08 11:42:05;;;;;;;;;2.00;0.00;;;;;;;;5097198;27;45345;-77
2022/09/08 11:44:33;;;;;;;;;1.00;0.00;;;;;;;;5097226;27;45425;-77
2022/09/08 11:46:59;;;;;;;;;0.00;0.00;;;;;;;;5097288;27;45439;-78
2022/09/08 11:49:43;;;;;;;;;0.00;0.00;;;;;;;;5096013;27;46278;-76
2022/09/08 11:52:27;;;;;;;;;0.67;0.00;;;;;;;;5097136;27;45323;-77
2022/09/08 11:54:54;;;;;;;;;1.00;0.00;;;;;;;;5082712;27;45453;-77
2022/09/08 11:57:32;;;;;;;;;0.00;0.00;;;;;;;;5096977;27;45520;-76
2022/09/08 12:00:10;;;;;;;;;0.00;0.00;;;;;;;;5091188;27;46988;-77
2022/09/08 12:03:03;;;;;;;;;0.00;0.00;;;;;;;;5089295;27;45431;-77
2022/09/08 12:05:40;;;;;;;;;1.00;0.00;;;;;;;;5073333;27;45324;-77
2022/09/08 12:08:23;;;;;;;;;0.00;0.00;;;;;;;;5097196;27;45361;-77
2022/09/08 12:11:02;;;;;;;;;0.00;0.00;;;;;;;;5069276;27;45432;-76
2022/09/08 12:13:45;;;;;;;;;1.00;0.33;;;;;;;;5096751;27;45292;-77
2022/09/08 12:16:29;;;;;;;;;0.00;0.00;;;;;;;;5096872;27;45346;-76
2022/09/08 12:18:57;;;;;;;;;1.00;0.00;;;;;;;;5096221;27;45438;-77
2022/09/08 12:21:22;;;;;;;;;1.00;0.00;;;;;;;;5096568;27;45338;-77
2022/09/08 12:24:02;;;;;;;;;0.00;0.00;;;;;;;;5096238;27;45406;-77
2022/09/08 12:26:36;;;;;;;;;0.00;0.00;;;;;;;;5096742;27;45415;-77
2022/09/08 12:29:07;;;;;;;;;0.00;0.00;;;;;;;;5078173;27;45480;-76
2022/09/08 12:31:42;;;;;;;;;0.00;0.00;;;;;;;;5096599;27;46109;-77
2022/09/08 12:34:20;;;;;;;;;0.00;0.00;;;;;;;;5096011;27;45394;-78
2022/09/08 12:36:53;;;;;;;;;2.67;1.00;;;;;;;;5094005;27;45465;-77
2022/09/08 12:39:24;;;;;;;;;0.00;0.00;;;;;;;;5096132;27;45683;-76
2022/09/08 12:41:57;;;;;;;;;0.00;0.00;;;;;;;;5096262;27;45390;-77
2022/09/08 12:44:39;;;;;;;;;0.00;0.00;;;;;;;;5096146;27;45314;-77
2022/09/08 12:47:05;;;;;;;;;1.00;0.00;;;;;;;;5096311;27;45358;-78
2022/09/08 12:49:30;;;;;;;;;0.00;0.00;;;;;;;;5095960;27;45331;-77
2022/09/08 12:52:02;;;;;;;;;0.00;0.00;;;;;;;;5096067;27;46189;-77
2022/09/08 12:54:37;;;;;;;;;0.00;0.00;;;;;;;;5085330;27;45489;-77
2022/09/08 12:57:21;;;;;;;;;0.00;0.00;;;;;;;;5096154;27;45280;-77
2022/09/08 13:00:06;;;;;;;;;0.00;0.00;;;;;;;;5081492;27;45301;-77
2022/09/08 13:02:46;;;;;;;;;0.00;0.00;;;;;;;;5097482;27;46157;-77
2022/09/08 13:05:27;;;;;;;;;0.00;0.00;;;;;;;;5071702;27;45391;-77
2022/09/08 13:07:53;;;;;;;;;0.00;0.00;;;;;;;;5099638;27;45635;-77
2022/09/08 13:10:21;;;;;;;;;2.00;0.00;;;;;;;;5099643;27;45488;-78
2022/09/08 13:13:06;;;;;;;;;0.00;0.00;;;;;;;;5090845;27;46188;-77
2022/09/08 13:15:39;;;;;;;;;0.00;0.00;;;;;;;;5085885;27;45328;-77
2022/09/08 13:18:07;;;;;;;;;2.33;0.00;;;;;;;;5099357;27;45358;-77
2022/09/08 13:20:53;;;;;;;;;0.00;0.00;;;;;;;;5099288;27;45514;-77
2022/09/08 13:23:27;;;;;;;;;0.00;0.00;;;;;;;;5036048;28;45636;-77
2022/09/08 13:25:52;;;;;;;;;0.67;0.67;;;;;;;;5035971;28;45423;-77
2022/09/08 13:28:39;;;;;;;;;0.00;0.00;;;;;;;;5036257;28;45375;-77
2022/09/08 13:31:04;;;;;;;;;0.00;0.00;;;;;;;;5030531;28;45547;-77
2022/09/08 13:33:35;;;;;;;;;0.00;0.00;;;;;;;;5010671;28;46867;-76
2022/09/08 13:36:11;;;;;;;;;0.33;0.33;;;;;;;;5033466;28;45417;-77
2022/09/08 13:38:54;;;;;;;;;0.00;0.00;;;;;;;;5036021;28;45499;-77
2022/09/08 13:41:23;;;;;;;;;0.00;0.00;;;;;;;;5029987;28;45378;-75
2022/09/08 13:44:03;;;;;;;;;0.00;0.00;;;;;;;;5028047;28;45518;-75
2022/09/08 13:46:47;;;;;;;;;0.00;0.00;;;;;;;;5035475;28;45338;-76
2022/09/08 13:49:15;;;;;;;;;0.00;0.00;;;;;;;;5035651;28;45369;-76
2022/09/08 13:51:59;;;;;;;;;0.00;0.00;;;;;;;;5035899;28;45371;-77
2022/09/08 13:54:33;;;;;;;;;0.00;0.00;;;;;;;;5024925;28;47199;-76
2022/09/08 13:57:17;;;;;;;;;0.00;0.00;;;;;;;;5035757;28;45344;-75
2022/09/08 13:59:42;;;;;;;;;1.00;0.00;;;;;;;;5047969;27;45339;-76
2022/09/08 14:02:27;;;;;;;;;0.00;0.00;;;;;;;;5099214;27;45241;-76
2022/09/08 14:04:57;;;;;;;;;0.00;0.00;;;;;;;;5084220;27;45287;-77
2022/09/08 14:07:24;;;;;;;;;0.00;0.00;;;;;;;;5092337;27;45270;-77
2022/09/08 14:10:08;;;;;;;;;0.00;0.00;;;;;;;;5091121;27;45303;-77
2022/09/08 14:12:33;;;;;;;;;0.00;0.00;;;;;;;;5098061;27;45314;-77
2022/09/08 14:15:05;;;;;;;;;0.67;0.67;;;;;;;;5098231;27;45557;-76
2022/09/08 14:17:48;;;;;;;;;0.67;0.00;;;;;;;;5098192;27;45389;-76
2022/09/08 14:20:34;;;;;;;;;0.00;0.00;;;;;;;;5098447;27;45341;-76
2022/09/08 14:23:00;;;;;;;;;0.00;0.00;;;;;;;;5098564;27;45430;-77
2022/09/08 14:25:35;;;;;;;;;0.33;0.33;;;;;;;;5098070;27;46366;-77
2022/09/08 14:28:02;;;;;;;;;0.67;0.67;;;;;;;;5098571;27;45405;-76
2022/09/08 14:30:40;;;;;;;;;0.00;0.00;;;;;;;;5097933;27;45335;-77
2022/09/08 14:33:16;;;;;;;;;0.00;0.00;;;;;;;;5098607;27;45307;-77
2022/09/08 14:35:48;;;;;;;;;0.00;0.00;;;;;;;;5083431;27;46050;-77
2022/09/08 14:38:22;;;;;;;;;0.33;0.00;;;;;;;;5098382;27;45299;-76
2022/09/08 14:40:56;;;;;;;;;0.67;0.67;;;;;;;;5098074;27;45296;-77
2022/09/08 14:43:33;;;;;;;;;0.00;0.00;;;;;;;;5089329;27;45441;-78
2022/09/08 14:46:10;;;;;;;;;0.00;0.00;;;;;;;;5093499;27;46350;-76
2022/09/08 14:48:50;;;;;;;;;0.33;0.33;;;;;;;;5079655;27;45297;-77
2022/09/08 14:51:18;;;;;;;;;0.00;0.00;;;;;;;;5097887;27;45342;-77
2022/09/08 14:53:50;;;;;;;;;1.00;1.00;;;;;;;;5091577;27;45548;-77
2022/09/08 14:56:25;;;;;;;;;0.00;0.00;;;;;;;;5094211;27;46997;-76
2022/09/08 14:58:55;;;;;;;;;0.00;0.00;;;;;;;;5094647;27;45672;-77
2022/09/08 15:01:37;;;;;;;;;2.00;0.67;;;;;;;;5097614;27;45467;-76
2022/09/08 15:04:15;;;;;;;;;0.00;0.00;;;;;;;;5097806;27;45438;-77
2022/09/08 15:06:40;;;;;;;;;0.00;0.00;;;;;;;;5097278;27;47550;-77
2022/09/08 15:09:27;;;;;;;;;0.00;0.00;;;;;;;;5097485;27;45361;-78